sensor_id;sensor_type;location;lat;lon;timestamp;temperature;humidity
41481;DHT22;27217;51.220;5.308;2024-01-30T00:00:32;9.10;99.90
41481;DHT22;27217;51.220;5.308;2024-01-30T00:02:58;9.00;99.90
41481;DHT22;27217;51.220;5.308;2024-01-30T00:05:23;9.30;99.90
41481;DHT22;27217;51.220;5.308;2024-01-30T00:07:49;9.50;99.90
41481;DHT22;27217;51.220;5.308;2024-01-30T00:10:15;9.40;99.90
41481;DHT22;27217;51.220;5.308;2024-01-30T00:12:41;9.40;99.90
41481;DHT22;27217;51.220;5.308;2024-01-30T00:15:06;9.10;99.90
41481;DHT22;27217;51.220;5.308;2024-01-30T00:17:35;9.00;99.90
41481;DHT22;27217;51.220;5.308;2024-01-30T00:20:01;9.00;99.90
41481;DHT22;27217;51.220;5.308;2024-01-30T00:22:31;9.00;99.90
41481;DHT22;27217;51.220;5.308;2024-01-30T00:24:56;9.40;99.90
41481;DHT22;27217;51.220;5.308;2024-01-30T00:27:22;9.20;99.90
41481;DHT22;27217;51.220;5.308;2024-01-30T00:29:48;9.20;99.90
41481;DHT22;27217;51.220;5.308;2024-01-30T00:32:13;9.00;99.90
41481;DHT22;27217;51.220;5.308;2024-01-30T00:34:39;9.10;99.90
41481;DHT22;27217;51.220;5.308;2024-01-30T00:37:04;9.20;99.90
41481;DHT22;27217;51.220;5.308;2024-01-30T00:39:30;9.30;99.90
41481;DHT22;27217;51.220;5.308;2024-01-30T00:41:56;9.20;99.90
41481;DHT22;27217;51.220;5.308;2024-01-30T00:44:21;9.10;99.90
41481;DHT22;27217;51.220;5.308;2024-01-30T00:46:47;9.20;99.90
41481;DHT22;27217;51.220;5.308;2024-01-30T00:49:13;9.30;99.90
41481;DHT22;27217;51.220;5.308;2024-01-30T00:51:38;9.40;99.90
41481;DHT22;27217;51.220;5.308;2024-01-30T00:54:04;9.60;99.90
41481;DHT22;27217;51.220;5.308;2024-01-30T00:56:31;9.50;99.90
41481;DHT22;27217;51.220;5.308;2024-01-30T00:58:57;9.60;99.90
41481;DHT22;27217;51.220;5.308;2024-01-30T01:01:22;9.50;99.90
41481;DHT22;27217;51.220;5.308;2024-01-30T01:03:48;9.40;99.90
41481;DHT22;27217;51.220;5.308;2024-01-30T01:06:14;9.50;99.90
41481;DHT22;27217;51.220;5.308;2024-01-30T01:08:39;9.60;99.90
41481;DHT22;27217;51.220;5.308;2024-01-30T01:11:05;9.90;99.90
41481;DHT22;27217;51.220;5.308;2024-01-30T01:13:31;9.70;99.90
41481;DHT22;27217;51.220;5.308;2024-01-30T01:15:56;9.80;99.90
41481;DHT22;27217;51.220;5.308;2024-01-30T01:18:22;10.00;99.90
41481;DHT22;27217;51.220;5.308;2024-01-30T01:20:47;10.00;99.90
41481;DHT22;27217;51.220;5.308;2024-01-30T01:23:13;9.60;99.90
41481;DHT22;27217;51.220;5.308;2024-01-30T01:25:38;9.60;99.90
41481;DHT22;27217;51.220;5.308;2024-01-30T01:28:04;9.70;99.90
41481;DHT22;27217;51.220;5.308;2024-01-30T01:30:30;9.50;99.90
41481;DHT22;27217;51.220;5.308;2024-01-30T01:32:56;9.60;99.90
41481;DHT22;27217;51.220;5.308;2024-01-30T01:35:25;9.70;99.90
41481;DHT22;27217;51.220;5.308;2024-01-30T01:37:52;10.00;99.90
41481;DHT22;27217;51.220;5.308;2024-01-30T01:40:21;9.80;99.90
41481;DHT22;27217;51.220;5.308;2024-01-30T01:42:47;9.60;99.90
41481;DHT22;27217;51.220;5.308;2024-01-30T01:45:12;9.60;99.90
41481;DHT22;27217;51.220;5.308;2024-01-30T01:47:38;9.50;99.90
41481;DHT22;27217;51.220;5.308;2024-01-30T01:50:04;9.40;99.90
41481;DHT22;27217;51.220;5.308;2024-01-30T01:52:30;9.30;99.90
41481;DHT22;27217;51.220;5.308;2024-01-30T01:54:55;9.50;99.90
41481;DHT22;27217;51.220;5.308;2024-01-30T01:57:21;9.70;99.90
41481;DHT22;27217;51.220;5.308;2024-01-30T01:59:47;9.70;99.90
41481;DHT22;27217;51.220;5.308;2024-01-30T02:02:13;9.50;99.90
41481;DHT22;27217;51.220;5.308;2024-01-30T02:04:41;9.30;99.90
41481;DHT22;27217;51.220;5.308;2024-01-30T02:07:07;9.50;99.90
41481;DHT22;27217;51.220;5.308;2024-01-30T02:09:32;9.60;99.90
41481;DHT22;27217;51.220;5.308;2024-01-30T02:11:58;9.40;99.90
41481;DHT22;27217;51.220;5.308;2024-01-30T02:14:24;9.30;99.90
41481;DHT22;27217;51.220;5.308;2024-01-30T02:16:49;9.30;99.90
41481;DHT22;27217;51.220;5.308;2024-01-30T02:19:15;9.50;99.90
41481;DHT22;27217;51.220;5.308;2024-01-30T02:21:40;9.80;99.90
41481;DHT22;27217;51.220;5.308;2024-01-30T02:24:06;9.60;99.90
41481;DHT22;27217;51.220;5.308;2024-01-30T02:26:32;9.80;99.90
41481;DHT22;27217;51.220;5.308;2024-01-30T02:28:57;9.70;99.90
41481;DHT22;27217;51.220;5.308;2024-01-30T02:31:24;9.80;99.90
41481;DHT22;27217;51.220;5.308;2024-01-30T02:33:50;9.70;99.90
41481;DHT22;27217;51.220;5.308;2024-01-30T02:36:15;9.50;99.90
41481;DHT22;27217;51.220;5.308;2024-01-30T02:38:41;9.60;99.90
41481;DHT22;27217;51.220;5.308;2024-01-30T02:41:07;9.50;99.90
41481;DHT22;27217;51.220;5.308;2024-01-30T02:43:32;9.50;99.90
41481;DHT22;27217;51.220;5.308;2024-01-30T02:45:58;9.30;99.90
41481;DHT22;27217;51.220;5.308;2024-01-30T02:48:25;9.30;99.90
41481;DHT22;27217;51.220;5.308;2024-01-30T02:50:50;9.20;99.90
41481;DHT22;27217;51.220;5.308;2024-01-30T02:53:16;9.30;99.90
41481;DHT22;27217;51.220;5.308;2024-01-30T02:55:44;9.40;99.90
41481;DHT22;27217;51.220;5.308;2024-01-30T02:58:10;9.50;99.90
41481;DHT22;27217;51.220;5.308;2024-01-30T03:00:35;9.70;99.90
41481;DHT22;27217;51.220;5.308;2024-01-30T03:03:01;9.40;99.90
41481;DHT22;27217;51.220;5.308;2024-01-30T03:05:27;9.20;99.90
41481;DHT22;27217;51.220;5.308;2024-01-30T03:07:52;9.30;99.90
41481;DHT22;27217;51.220;5.308;2024-01-30T03:10:18;9.30;99.90
41481;DHT22;27217;51.220;5.308;2024-01-30T03:12:44;9.50;99.90
41481;DHT22;27217;51.220;5.308;2024-01-30T03:15:09;9.40;99.90
41481;DHT22;27217;51.220;5.308;2024-01-30T03:17:35;9.30;99.90
41481;DHT22;27217;51.220;5.308;2024-01-30T03:20:02;9.30;99.90
41481;DHT22;27217;51.220;5.308;2024-01-30T03:22:29;9.30;99.90
41481;DHT22;27217;51.220;5.308;2024-01-30T03:24:54;9.10;99.90
41481;DHT22;27217;51.220;5.308;2024-01-30T03:27:20;9.20;99.90
41481;DHT22;27217;51.220;5.308;2024-01-30T03:29:45;9.20;99.90
41481;DHT22;27217;51.220;5.308;2024-01-30T03:32:11;9.20;99.90
41481;DHT22;27217;51.220;5.308;2024-01-30T03:34:36;10.50;99.90
41481;DHT22;27217;51.220;5.308;2024-01-30T03:37:02;9.20;99.90
41481;DHT22;27217;51.220;5.308;2024-01-30T03:39:28;9.10;99.90
41481;DHT22;27217;51.220;5.308;2024-01-30T03:41:53;9.30;99.90
41481;DHT22;27217;51.220;5.308;2024-01-30T03:44:19;9.50;99.90
41481;DHT22;27217;51.220;5.308;2024-01-30T03:46:45;9.40;99.90
41481;DHT22;27217;51.220;5.308;2024-01-30T03:49:11;9.40;99.90
41481;DHT22;27217;51.220;5.308;2024-01-30T03:51:36;9.40;99.90
41481;DHT22;27217;51.220;5.308;2024-01-30T03:54:02;9.50;99.90
41481;DHT22;27217;51.220;5.308;2024-01-30T03:56:27;8.40;99.90
41481;DHT22;27217;51.220;5.308;2024-01-30T03:58:53;9.80;99.90
41481;DHT22;27217;51.220;5.308;2024-01-30T04:01:19;9.50;99.90
41481;DHT22;27217;51.220;5.308;2024-01-30T04:03:44;9.70;99.90
41481;DHT22;27217;51.220;5.308;2024-01-30T04:06:10;9.80;99.90
41481;DHT22;27217;51.220;5.308;2024-01-30T04:08:36;9.70;99.90
41481;DHT22;27217;51.220;5.308;2024-01-30T04:11:05;9.70;99.90
41481;DHT22;27217;51.220;5.308;2024-01-30T04:13:31;9.70;99.90
41481;DHT22;27217;51.220;5.308;2024-01-30T04:15:58;9.50;99.90
41481;DHT22;27217;51.220;5.308;2024-01-30T04:18:24;9.40;99.90
41481;DHT22;27217;51.220;5.308;2024-01-30T04:20:49;9.40;99.90
41481;DHT22;27217;51.220;5.308;2024-01-30T04:23:15;9.30;99.90
41481;DHT22;27217;51.220;5.308;2024-01-30T04:25:40;9.40;99.90
41481;DHT22;27217;51.220;5.308;2024-01-30T04:28:06;9.60;99.90
41481;DHT22;27217;51.220;5.308;2024-01-30T04:30:32;9.60;99.90
41481;DHT22;27217;51.220;5.308;2024-01-30T04:32:58;9.50;99.90
41481;DHT22;27217;51.220;5.308;2024-01-30T04:35:23;9.30;99.90
41481;DHT22;27217;51.220;5.308;2024-01-30T04:37:51;9.30;99.90
41481;DHT22;27217;51.220;5.308;2024-01-30T04:40:17;9.70;99.90
41481;DHT22;27217;51.220;5.308;2024-01-30T04:42:43;9.50;99.90
41481;DHT22;27217;51.220;5.308;2024-01-30T04:45:08;9.40;99.90
41481;DHT22;27217;51.220;5.308;2024-01-30T04:47:34;9.30;99.90
41481;DHT22;27217;51.220;5.308;2024-01-30T04:50:00;9.20;99.90
41481;DHT22;27217;51.220;5.308;2024-01-30T04:52:26;9.30;99.90
41481;DHT22;27217;51.220;5.308;2024-01-30T04:54:52;9.40;99.90
41481;DHT22;27217;51.220;5.308;2024-01-30T04:57:17;9.80;99.90
41481;DHT22;27217;51.220;5.308;2024-01-30T04:59:43;9.90;99.90
41481;DHT22;27217;51.220;5.308;2024-01-30T05:02:08;10.00;99.90
41481;DHT22;27217;51.220;5.308;2024-01-30T05:04:34;9.90;99.90
41481;DHT22;27217;51.220;5.308;2024-01-30T05:07:00;9.70;99.90
41481;DHT22;27217;51.220;5.308;2024-01-30T05:09:25;9.70;99.90
41481;DHT22;27217;51.220;5.308;2024-01-30T05:11:51;9.80;99.90
41481;DHT22;27217;51.220;5.308;2024-01-30T05:14:17;9.80;99.90
41481;DHT22;27217;51.220;5.308;2024-01-30T05:16:43;9.80;99.90
41481;DHT22;27217;51.220;5.308;2024-01-30T05:19:12;9.90;99.90
41481;DHT22;27217;51.220;5.308;2024-01-30T05:21:38;9.80;99.90
41481;DHT22;27217;51.220;5.308;2024-01-30T05:24:04;9.90;99.90
41481;DHT22;27217;51.220;5.308;2024-01-30T05:26:29;10.20;99.90
41481;DHT22;27217;51.220;5.308;2024-01-30T05:28:55;10.20;99.90
41481;DHT22;27217;51.220;5.308;2024-01-30T05:31:21;10.20;99.90
41481;DHT22;27217;51.220;5.308;2024-01-30T05:33:46;10.20;99.90
41481;DHT22;27217;51.220;5.308;2024-01-30T05:36:12;10.00;99.90
41481;DHT22;27217;51.220;5.308;2024-01-30T05:38:38;9.80;99.90
41481;DHT22;27217;51.220;5.308;2024-01-30T05:41:04;9.70;99.90
41481;DHT22;27217;51.220;5.308;2024-01-30T05:43:29;9.70;99.90
41481;DHT22;27217;51.220;5.308;2024-01-30T05:45:55;9.60;99.90
41481;DHT22;27217;51.220;5.308;2024-01-30T05:48:21;9.70;99.90
41481;DHT22;27217;51.220;5.308;2024-01-30T05:50:46;9.90;99.90
41481;DHT22;27217;51.220;5.308;2024-01-30T05:53:12;10.00;99.90
41481;DHT22;27217;51.220;5.308;2024-01-30T05:55:37;10.10;99.90
41481;DHT22;27217;51.220;5.308;2024-01-30T05:58:03;10.10;99.90
41481;DHT22;27217;51.220;5.308;2024-01-30T06:00:29;10.00;99.90
41481;DHT22;27217;51.220;5.308;2024-01-30T06:02:54;10.10;99.90
41481;DHT22;27217;51.220;5.308;2024-01-30T06:05:20;10.00;99.90
41481;DHT22;27217;51.220;5.308;2024-01-30T06:07:46;10.00;99.90
41481;DHT22;27217;51.220;5.308;2024-01-30T06:10:11;10.00;99.90
41481;DHT22;27217;51.220;5.308;2024-01-30T06:12:37;10.10;99.90
41481;DHT22;27217;51.220;5.308;2024-01-30T06:15:03;10.10;99.90
41481;DHT22;27217;51.220;5.308;2024-01-30T06:17:29;10.10;99.90
41481;DHT22;27217;51.220;5.308;2024-01-30T06:19:54;10.00;99.90
41481;DHT22;27217;51.220;5.308;2024-01-30T06:22:20;10.00;99.90
41481;DHT22;27217;51.220;5.308;2024-01-30T06:24:45;9.90;99.90
41481;DHT22;27217;51.220;5.308;2024-01-30T06:27:13;10.00;99.90
41481;DHT22;27217;51.220;5.308;2024-01-30T06:29:39;9.90;99.90
41481;DHT22;27217;51.220;5.308;2024-01-30T06:32:05;9.90;99.90
41481;DHT22;27217;51.220;5.308;2024-01-30T06:34:30;9.90;99.90
41481;DHT22;27217;51.220;5.308;2024-01-30T06:36:56;10.10;99.90
41481;DHT22;27217;51.220;5.308;2024-01-30T06:39:22;9.90;99.90
41481;DHT22;27217;51.220;5.308;2024-01-30T06:41:48;9.80;99.90
41481;DHT22;27217;51.220;5.308;2024-01-30T06:44:14;9.80;99.90
41481;DHT22;27217;51.220;5.308;2024-01-30T06:46:43;9.90;99.90
41481;DHT22;27217;51.220;5.308;2024-01-30T06:49:09;10.10;99.90
41481;DHT22;27217;51.220;5.308;2024-01-30T06:51:34;10.20;99.90
41481;DHT22;27217;51.220;5.308;2024-01-30T06:54:00;10.10;99.90
41481;DHT22;27217;51.220;5.308;2024-01-30T06:56:25;9.90;99.90
41481;DHT22;27217;51.220;5.308;2024-01-30T06:58:51;10.20;99.90
41481;DHT22;27217;51.220;5.308;2024-01-30T07:01:16;10.30;99.90
41481;DHT22;27217;51.220;5.308;2024-01-30T07:03:42;10.10;99.90
41481;DHT22;27217;51.220;5.308;2024-01-30T07:06:08;10.20;99.90
41481;DHT22;27217;51.220;5.308;2024-01-30T07:08:34;10.00;99.90
41481;DHT22;27217;51.220;5.308;2024-01-30T07:10:59;9.80;99.90
41481;DHT22;27217;51.220;5.308;2024-01-30T07:13:25;9.80;99.90
41481;DHT22;27217;51.220;5.308;2024-01-30T07:15:50;10.00;99.90
41481;DHT22;27217;51.220;5.308;2024-01-30T07:18:16;10.10;99.90
41481;DHT22;27217;51.220;5.308;2024-01-30T07:20:41;10.30;99.90
41481;DHT22;27217;51.220;5.308;2024-01-30T07:23:14;10.20;99.90
41481;DHT22;27217;51.220;5.308;2024-01-30T07:25:42;10.10;99.90
41481;DHT22;27217;51.220;5.308;2024-01-30T07:28:08;10.10;99.90
41481;DHT22;27217;51.220;5.308;2024-01-30T07:30:37;10.10;99.90
41481;DHT22;27217;51.220;5.308;2024-01-30T07:33:04;9.30;99.90
41481;DHT22;27217;51.220;5.308;2024-01-30T07:35:29;10.40;99.90
41481;DHT22;27217;51.220;5.308;2024-01-30T07:37:55;10.20;99.90
41481;DHT22;27217;51.220;5.308;2024-01-30T07:40:22;10.20;99.90
41481;DHT22;27217;51.220;5.308;2024-01-30T07:42:50;10.20;99.90
41481;DHT22;27217;51.220;5.308;2024-01-30T07:45:16;10.30;99.90
41481;DHT22;27217;51.220;5.308;2024-01-30T07:47:42;10.30;99.90
41481;DHT22;27217;51.220;5.308;2024-01-30T07:50:08;10.50;99.90
41481;DHT22;27217;51.220;5.308;2024-01-30T07:52:34;10.70;99.90
41481;DHT22;27217;51.220;5.308;2024-01-30T07:55:00;10.70;99.90
41481;DHT22;27217;51.220;5.308;2024-01-30T07:57:25;10.50;99.90
41481;DHT22;27217;51.220;5.308;2024-01-30T07:59:51;10.60;99.90
41481;DHT22;27217;51.220;5.308;2024-01-30T08:02:16;10.50;99.90
41481;DHT22;27217;51.220;5.308;2024-01-30T08:04:42;10.50;99.90
41481;DHT22;27217;51.220;5.308;2024-01-30T08:07:08;10.40;99.90
41481;DHT22;27217;51.220;5.308;2024-01-30T08:09:33;10.50;99.90
41481;DHT22;27217;51.220;5.308;2024-01-30T08:11:59;10.40;99.90
41481;DHT22;27217;51.220;5.308;2024-01-30T08:14:24;10.50;99.90
41481;DHT22;27217;51.220;5.308;2024-01-30T08:16:51;10.70;99.90
41481;DHT22;27217;51.220;5.308;2024-01-30T08:19:16;10.60;99.90
41481;DHT22;27217;51.220;5.308;2024-01-30T08:21:42;10.70;99.90
41481;DHT22;27217;51.220;5.308;2024-01-30T08:24:08;10.90;99.90
41481;DHT22;27217;51.220;5.308;2024-01-30T08:26:33;11.10;99.90
41481;DHT22;27217;51.220;5.308;2024-01-30T08:28:59;10.90;99.90
41481;DHT22;27217;51.220;5.308;2024-01-30T08:31:24;11.10;99.90
41481;DHT22;27217;51.220;5.308;2024-01-30T08:33:50;11.10;99.90
41481;DHT22;27217;51.220;5.308;2024-01-30T08:36:16;10.90;99.90
41481;DHT22;27217;51.220;5.308;2024-01-30T08:38:42;10.90;99.90
41481;DHT22;27217;51.220;5.308;2024-01-30T08:41:08;10.90;99.90
41481;DHT22;27217;51.220;5.308;2024-01-30T08:43:34;10.90;99.90
41481;DHT22;27217;51.220;5.308;2024-01-30T08:46:00;11.40;99.90
41481;DHT22;27217;51.220;5.308;2024-01-30T08:48:25;11.30;99.90
41481;DHT22;27217;51.220;5.308;2024-01-30T08:50:51;11.50;99.90
41481;DHT22;27217;51.220;5.308;2024-01-30T08:53:17;11.40;99.90
41481;DHT22;27217;51.220;5.308;2024-01-30T08:55:42;11.20;99.90
41481;DHT22;27217;51.220;5.308;2024-01-30T08:58:08;11.20;99.90
41481;DHT22;27217;51.220;5.308;2024-01-30T09:00:33;11.40;99.90
41481;DHT22;27217;51.220;5.308;2024-01-30T09:02:59;11.60;99.90
41481;DHT22;27217;51.220;5.308;2024-01-30T09:05:24;11.60;99.90
41481;DHT22;27217;51.220;5.308;2024-01-30T09:07:50;11.50;99.90
41481;DHT22;27217;51.220;5.308;2024-01-30T09:10:15;11.70;99.90
41481;DHT22;27217;51.220;5.308;2024-01-30T09:12:41;11.70;99.90
41481;DHT22;27217;51.220;5.308;2024-01-30T09:15:07;11.60;99.90
41481;DHT22;27217;51.220;5.308;2024-01-30T09:17:32;11.60;99.90
41481;DHT22;27217;51.220;5.308;2024-01-30T09:19:58;11.60;99.90
41481;DHT22;27217;51.220;5.308;2024-01-30T09:22:24;11.80;99.90
41481;DHT22;27217;51.220;5.308;2024-01-30T09:24:50;11.70;99.90
41481;DHT22;27217;51.220;5.308;2024-01-30T09:27:15;11.90;99.90
41481;DHT22;27217;51.220;5.308;2024-01-30T09:29:41;11.70;99.90
41481;DHT22;27217;51.220;5.308;2024-01-30T09:32:07;11.90;99.90
41481;DHT22;27217;51.220;5.308;2024-01-30T09:34:32;11.90;99.90
41481;DHT22;27217;51.220;5.308;2024-01-30T09:36:58;11.70;99.90
41481;DHT22;27217;51.220;5.308;2024-01-30T09:39:25;12.00;99.90
41481;DHT22;27217;51.220;5.308;2024-01-30T09:44:48;12.00;99.90
41481;DHT22;27217;51.220;5.308;2024-01-30T09:47:15;11.80;99.90
41481;DHT22;27217;51.220;5.308;2024-01-30T09:49:41;11.80;99.90
41481;DHT22;27217;51.220;5.308;2024-01-30T09:52:07;12.00;99.90
41481;DHT22;27217;51.220;5.308;2024-01-30T09:54:33;12.00;99.90
41481;DHT22;27217;51.220;5.308;2024-01-30T09:56:59;12.00;99.90
41481;DHT22;27217;51.220;5.308;2024-01-30T09:59:24;12.30;99.90
41481;DHT22;27217;51.220;5.308;2024-01-30T10:01:50;12.50;99.90
41481;DHT22;27217;51.220;5.308;2024-01-30T10:04:16;12.20;99.90
41481;DHT22;27217;51.220;5.308;2024-01-30T10:06:42;12.20;99.90
41481;DHT22;27217;51.220;5.308;2024-01-30T10:09:07;12.40;99.90
41481;DHT22;27217;51.220;5.308;2024-01-30T10:11:36;12.40;99.90
41481;DHT22;27217;51.220;5.308;2024-01-30T10:14:01;12.40;99.90
41481;DHT22;27217;51.220;5.308;2024-01-30T10:16:27;12.30;99.90
41481;DHT22;27217;51.220;5.308;2024-01-30T10:18:53;12.30;99.90
41481;DHT22;27217;51.220;5.308;2024-01-30T10:21:18;12.40;99.90
41481;DHT22;27217;51.220;5.308;2024-01-30T10:23:44;12.40;99.90
41481;DHT22;27217;51.220;5.308;2024-01-30T10:26:10;12.20;99.90
41481;DHT22;27217;51.220;5.308;2024-01-30T10:28:36;12.10;99.90
41481;DHT22;27217;51.220;5.308;2024-01-30T10:31:01;12.30;99.90
41481;DHT22;27217;51.220;5.308;2024-01-30T10:33:32;12.40;99.90
41481;DHT22;27217;51.220;5.308;2024-01-30T10:36:01;12.70;99.90
41481;DHT22;27217;51.220;5.308;2024-01-30T10:38:30;13.00;99.90
41481;DHT22;27217;51.220;5.308;2024-01-30T10:40:56;13.00;99.90
41481;DHT22;27217;51.220;5.308;2024-01-30T10:43:22;12.70;99.90
41481;DHT22;27217;51.220;5.308;2024-01-30T10:45:49;12.60;99.90
41481;DHT22;27217;51.220;5.308;2024-01-30T10:48:17;12.20;99.90
41481;DHT22;27217;51.220;5.308;2024-01-30T10:50:44;12.20;99.90
41481;DHT22;27217;51.220;5.308;2024-01-30T10:53:10;11.90;99.90
41481;DHT22;27217;51.220;5.308;2024-01-30T10:55:37;12.00;99.90
41481;DHT22;27217;51.220;5.308;2024-01-30T10:58:04;12.30;99.90
41481;DHT22;27217;51.220;5.308;2024-01-30T11:00:30;12.60;99.90
41481;DHT22;27217;51.220;5.308;2024-01-30T11:02:58;12.30;99.90
41481;DHT22;27217;51.220;5.308;2024-01-30T11:05:24;11.30;99.90
41481;DHT22;27217;51.220;5.308;2024-01-30T11:07:52;12.20;99.90
41481;DHT22;27217;51.220;5.308;2024-01-30T11:10:18;12.20;99.90
41481;DHT22;27217;51.220;5.308;2024-01-30T11:12:45;12.20;99.90
41481;DHT22;27217;51.220;5.308;2024-01-30T11:15:15;12.30;99.90
41481;DHT22;27217;51.220;5.308;2024-01-30T11:20:27;12.30;99.90
41481;DHT22;27217;51.220;5.308;2024-01-30T11:22:54;12.30;99.90
41481;DHT22;27217;51.220;5.308;2024-01-30T11:25:20;12.40;99.90
41481;DHT22;27217;51.220;5.308;2024-01-30T11:27:46;12.50;99.90
41481;DHT22;27217;51.220;5.308;2024-01-30T11:30:31;12.30;99.90
41481;DHT22;27217;51.220;5.308;2024-01-30T11:35:25;12.10;99.90
41481;DHT22;27217;51.220;5.308;2024-01-30T11:37:51;12.50;99.90
41481;DHT22;27217;51.220;5.308;2024-01-30T11:40:16;12.40;99.90
41481;DHT22;27217;51.220;5.308;2024-01-30T11:42:42;12.20;99.90
41481;DHT22;27217;51.220;5.308;2024-01-30T11:45:08;12.20;99.90
41481;DHT22;27217;51.220;5.308;2024-01-30T11:47:37;12.10;99.90
41481;DHT22;27217;51.220;5.308;2024-01-30T11:50:03;12.10;99.90
41481;DHT22;27217;51.220;5.308;2024-01-30T11:52:31;12.20;99.90
41481;DHT22;27217;51.220;5.308;2024-01-30T11:54:58;12.30;99.90
41481;DHT22;27217;51.220;5.308;2024-01-30T11:57:24;12.50;99.90
41481;DHT22;27217;51.220;5.308;2024-01-30T11:59:49;12.30;99.90
41481;DHT22;27217;51.220;5.308;2024-01-30T12:02:16;12.20;99.90
41481;DHT22;27217;51.220;5.308;2024-01-30T12:04:42;11.90;99.90
41481;DHT22;27217;51.220;5.308;2024-01-30T12:07:08;12.00;99.90
41481;DHT22;27217;51.220;5.308;2024-01-30T12:09:33;12.00;99.90
41481;DHT22;27217;51.220;5.308;2024-01-30T12:11:59;12.20;99.90
41481;DHT22;27217;51.220;5.308;2024-01-30T12:14:25;11.90;99.90
41481;DHT22;27217;51.220;5.308;2024-01-30T12:16:51;11.70;99.90
41481;DHT22;27217;51.220;5.308;2024-01-30T12:19:23;11.80;99.90
41481;DHT22;27217;51.220;5.308;2024-01-30T12:21:53;11.70;99.90
41481;DHT22;27217;51.220;5.308;2024-01-30T12:24:19;11.60;99.90
41481;DHT22;27217;51.220;5.308;2024-01-30T12:26:45;11.60;99.90
41481;DHT22;27217;51.220;5.308;2024-01-30T12:29:10;11.70;99.90
41481;DHT22;27217;51.220;5.308;2024-01-30T12:31:36;11.80;99.90
41481;DHT22;27217;51.220;5.308;2024-01-30T12:34:01;11.90;99.90
41481;DHT22;27217;51.220;5.308;2024-01-30T12:36:28;11.90;99.90
41481;DHT22;27217;51.220;5.308;2024-01-30T12:38:54;11.90;99.90
41481;DHT22;27217;51.220;5.308;2024-01-30T12:41:19;11.70;99.90
41481;DHT22;27217;51.220;5.308;2024-01-30T12:43:45;11.80;99.90
41481;DHT22;27217;51.220;5.308;2024-01-30T12:46:13;11.70;99.90
41481;DHT22;27217;51.220;5.308;2024-01-30T12:48:38;11.60;99.90
41481;DHT22;27217;51.220;5.308;2024-01-30T12:51:04;11.50;99.90
41481;DHT22;27217;51.220;5.308;2024-01-30T12:53:29;11.40;99.90
41481;DHT22;27217;51.220;5.308;2024-01-30T12:55:55;11.40;99.90
41481;DHT22;27217;51.220;5.308;2024-01-30T12:58:21;11.60;99.90
41481;DHT22;27217;51.220;5.308;2024-01-30T13:00:46;12.00;99.90
41481;DHT22;27217;51.220;5.308;2024-01-30T13:03:12;12.10;99.90
41481;DHT22;27217;51.220;5.308;2024-01-30T13:05:38;13.10;99.90
41481;DHT22;27217;51.220;5.308;2024-01-30T13:08:06;14.00;99.90
41481;DHT22;27217;51.220;5.308;2024-01-30T13:10:32;14.20;98.40
41481;DHT22;27217;51.220;5.308;2024-01-30T13:12:57;14.00;97.60
41481;DHT22;27217;51.220;5.308;2024-01-30T13:15:23;13.60;99.90
41481;DHT22;27217;51.220;5.308;2024-01-30T13:17:49;12.80;99.90
41481;DHT22;27217;51.220;5.308;2024-01-30T13:20:15;12.30;99.90
41481;DHT22;27217;51.220;5.308;2024-01-30T13:22:44;12.00;99.90
41481;DHT22;27217;51.220;5.308;2024-01-30T13:25:10;11.90;99.90
41481;DHT22;27217;51.220;5.308;2024-01-30T13:27:36;11.70;99.90
41481;DHT22;27217;51.220;5.308;2024-01-30T13:30:02;11.60;99.90
41481;DHT22;27217;51.220;5.308;2024-01-30T13:32:29;11.20;99.90
41481;DHT22;27217;51.220;5.308;2024-01-30T13:34:54;11.20;99.90
41481;DHT22;27217;51.220;5.308;2024-01-30T13:37:20;11.40;99.90
41481;DHT22;27217;51.220;5.308;2024-01-30T13:39:45;11.70;99.90
41481;DHT22;27217;51.220;5.308;2024-01-30T13:42:11;13.00;99.90
41481;DHT22;27217;51.220;5.308;2024-01-30T13:44:36;14.00;96.50
41481;DHT22;27217;51.220;5.308;2024-01-30T13:47:02;14.80;87.20
41481;DHT22;27217;51.220;5.308;2024-01-30T13:49:28;14.30;90.60
41481;DHT22;27217;51.220;5.308;2024-01-30T13:51:53;13.10;96.40
41481;DHT22;27217;51.220;5.308;2024-01-30T13:54:19;12.50;99.90
41481;DHT22;27217;51.220;5.308;2024-01-30T13:56:45;12.60;99.90
41481;DHT22;27217;51.220;5.308;2024-01-30T13:59:10;12.10;99.90
41481;DHT22;27217;51.220;5.308;2024-01-30T14:01:36;11.90;99.90
41481;DHT22;27217;51.220;5.308;2024-01-30T14:04:02;11.90;99.90
41481;DHT22;27217;51.220;5.308;2024-01-30T14:06:27;11.80;99.90
41481;DHT22;27217;51.220;5.308;2024-01-30T14:08:53;11.70;99.90
41481;DHT22;27217;51.220;5.308;2024-01-30T14:11:19;11.50;99.90
41481;DHT22;27217;51.220;5.308;2024-01-30T14:13:44;11.50;99.90
41481;DHT22;27217;51.220;5.308;2024-01-30T14:16:10;11.40;99.90
41481;DHT22;27217;51.220;5.308;2024-01-30T14:18:36;11.50;99.90
41481;DHT22;27217;51.220;5.308;2024-01-30T14:21:01;11.40;99.90
41481;DHT22;27217;51.220;5.308;2024-01-30T14:23:27;11.40;99.90
41481;DHT22;27217;51.220;5.308;2024-01-30T14:25:52;11.40;99.90
41481;DHT22;27217;51.220;5.308;2024-01-30T14:28:18;11.30;99.90
41481;DHT22;27217;51.220;5.308;2024-01-30T14:30:43;11.30;99.90
41481;DHT22;27217;51.220;5.308;2024-01-30T14:33:09;11.30;99.90
41481;DHT22;27217;51.220;5.308;2024-01-30T14:35:34;11.20;99.90
41481;DHT22;27217;51.220;5.308;2024-01-30T14:38:00;11.10;99.90
41481;DHT22;27217;51.220;5.308;2024-01-30T14:40:27;10.90;99.90
41481;DHT22;27217;51.220;5.308;2024-01-30T14:42:52;10.90;99.90
41481;DHT22;27217;51.220;5.308;2024-01-30T14:45:18;10.90;99.90
41481;DHT22;27217;51.220;5.308;2024-01-30T14:47:44;10.80;99.90
41481;DHT22;27217;51.220;5.308;2024-01-30T14:50:09;10.80;99.90
41481;DHT22;27217;51.220;5.308;2024-01-30T14:52:37;10.60;99.90
41481;DHT22;27217;51.220;5.308;2024-01-30T14:55:05;10.50;99.90
41481;DHT22;27217;51.220;5.308;2024-01-30T14:57:30;10.30;99.90
41481;DHT22;27217;51.220;5.308;2024-01-30T14:59:56;10.30;99.90
41481;DHT22;27217;51.220;5.308;2024-01-30T15:02:22;10.20;99.90
41481;DHT22;27217;51.220;5.308;2024-01-30T15:04:47;10.20;99.90
41481;DHT22;27217;51.220;5.308;2024-01-30T15:07:13;10.00;99.90
41481;DHT22;27217;51.220;5.308;2024-01-30T15:09:39;10.20;99.90
41481;DHT22;27217;51.220;5.308;2024-01-30T15:12:04;10.10;99.90
41481;DHT22;27217;51.220;5.308;2024-01-30T15:14:30;10.20;99.90
41481;DHT22;27217;51.220;5.308;2024-01-30T15:16:55;10.10;99.90
41481;DHT22;27217;51.220;5.308;2024-01-30T15:19:21;10.00;99.90
41481;DHT22;27217;51.220;5.308;2024-01-30T15:21:46;9.90;99.90
41481;DHT22;27217;51.220;5.308;2024-01-30T15:24:12;9.90;99.90
41481;DHT22;27217;51.220;5.308;2024-01-30T15:26:40;10.30;99.90
41481;DHT22;27217;51.220;5.308;2024-01-30T15:29:06;9.80;99.90
41481;DHT22;27217;51.220;5.308;2024-01-30T15:31:31;9.70;99.90
41481;DHT22;27217;51.220;5.308;2024-01-30T15:33:57;9.80;99.90
41481;DHT22;27217;51.220;5.308;2024-01-30T15:36:23;9.90;99.90